sensor_id;sensor_type;location;lat;lon;timestamp;P1;durP1;ratioP1;P2;durP2;ratioP2
9461;SDS011;4769;42.660;23.262;2024-02-15T00:01:51;10.10;;;8.63;;
9461;SDS011;4769;42.660;23.262;2024-02-15T00:04:16;11.73;;;8.77;;
9461;SDS011;4769;42.660;23.262;2024-02-15T00:06:42;12.03;;;8.67;;
9461;SDS011;4769;42.660;23.262;2024-02-15T00:09:08;10.20;;;8.57;;
9461;SDS011;4769;42.660;23.262;2024-02-15T00:11:33;8.87;;;7.97;;
9461;SDS011;4769;42.660;23.262;2024-02-15T00:13:59;9.53;;;8.53;;
9461;SDS011;4769;42.660;23.262;2024-02-15T00:16:25;11.07;;;8.90;;
9461;SDS011;4769;42.660;23.262;2024-02-15T00:18:52;9.83;;;8.63;;
9461;SDS011;4769;42.660;23.262;2024-02-15T00:21:20;9.93;;;7.87;;
9461;SDS011;4769;42.660;23.262;2024-02-15T00:23:46;10.67;;;8.77;;
9461;SDS011;4769;42.660;23.262;2024-02-15T00:26:12;9.43;;;8.23;;
9461;SDS011;4769;42.660;23.262;2024-02-15T00:28:37;11.10;;;8.40;;
9461;SDS011;4769;42.660;23.262;2024-02-15T00:31:03;11.63;;;8.13;;
9461;SDS011;4769;42.660;23.262;2024-02-15T00:33:29;9.80;;;8.57;;
9461;SDS011;4769;42.660;23.262;2024-02-15T00:35:54;11.90;;;8.20;;
9461;SDS011;4769;42.660;23.262;2024-02-15T00:38:19;9.93;;;8.53;;
9461;SDS011;4769;42.660;23.262;2024-02-15T00:40:45;10.27;;;8.57;;
9461;SDS011;4769;42.660;23.262;2024-02-15T00:43:10;9.80;;;8.80;;
9461;SDS011;4769;42.660;23.262;2024-02-15T00:45:36;12.37;;;8.50;;
9461;SDS011;4769;42.660;23.262;2024-02-15T00:48:01;10.77;;;8.40;;
9461;SDS011;4769;42.660;23.262;2024-02-15T00:50:27;9.60;;;7.87;;
9461;SDS011;4769;42.660;23.262;2024-02-15T00:52:52;10.40;;;8.37;;
9461;SDS011;4769;42.660;23.262;2024-02-15T00:55:18;11.93;;;9.60;;
9461;SDS011;4769;42.660;23.262;2024-02-15T00:57:44;9.03;;;8.10;;
9461;SDS011;4769;42.660;23.262;2024-02-15T01:00:09;11.63;;;8.37;;
9461;SDS011;4769;42.660;23.262;2024-02-15T01:02:35;10.40;;;8.30;;
9461;SDS011;4769;42.660;23.262;2024-02-15T01:05:01;9.63;;;7.73;;
9461;SDS011;4769;42.660;23.262;2024-02-15T01:07:26;10.53;;;8.10;;
9461;SDS011;4769;42.660;23.262;2024-02-15T01:09:52;9.20;;;7.60;;
9461;SDS011;4769;42.660;23.262;2024-02-15T01:12:17;9.27;;;8.27;;
9461;SDS011;4769;42.660;23.262;2024-02-15T01:14:43;9.43;;;7.40;;
9461;SDS011;4769;42.660;23.262;2024-02-15T01:17:08;9.53;;;8.20;;
9461;SDS011;4769;42.660;23.262;2024-02-15T01:19:34;11.07;;;7.83;;
9461;SDS011;4769;42.660;23.262;2024-02-15T01:22:00;11.33;;;7.77;;
9461;SDS011;4769;42.660;23.262;2024-02-15T01:24:25;10.47;;;8.83;;
9461;SDS011;4769;42.660;23.262;2024-02-15T01:26:51;9.73;;;7.93;;
9461;SDS011;4769;42.660;23.262;2024-02-15T01:29:16;9.33;;;8.00;;
9461;SDS011;4769;42.660;23.262;2024-02-15T01:31:42;8.50;;;7.57;;
9461;SDS011;4769;42.660;23.262;2024-02-15T01:34:08;10.50;;;7.67;;
9461;SDS011;4769;42.660;23.262;2024-02-15T01:36:34;9.27;;;7.97;;
9461;SDS011;4769;42.660;23.262;2024-02-15T01:38:59;9.47;;;7.80;;
9461;SDS011;4769;42.660;23.262;2024-02-15T01:41:24;13.37;;;8.60;;
9461;SDS011;4769;42.660;23.262;2024-02-15T01:43:50;11.33;;;8.80;;
9461;SDS011;4769;42.660;23.262;2024-02-15T01:46:16;11.37;;;8.70;;
9461;SDS011;4769;42.660;23.262;2024-02-15T01:48:42;11.87;;;8.73;;
9461;SDS011;4769;42.660;23.262;2024-02-15T01:51:11;8.03;;;7.23;;
9461;SDS011;4769;42.660;23.262;2024-02-15T01:53:40;10.27;;;8.40;;
9461;SDS011;4769;42.660;23.262;2024-02-15T01:56:07;11.03;;;8.60;;
9461;SDS011;4769;42.660;23.262;2024-02-15T01:58:33;10.87;;;8.70;;
9461;SDS011;4769;42.660;23.262;2024-02-15T02:00:59;9.67;;;8.07;;
9461;SDS011;4769;42.660;23.262;2024-02-15T02:03:28;9.07;;;7.87;;
9461;SDS011;4769;42.660;23.262;2024-02-15T02:05:55;8.77;;;7.83;;
9461;SDS011;4769;42.660;23.262;2024-02-15T02:08:21;8.77;;;7.33;;
9461;SDS011;4769;42.660;23.262;2024-02-15T02:10:47;11.03;;;8.83;;
9461;SDS011;4769;42.660;23.262;2024-02-15T02:13:12;10.67;;;8.87;;
9461;SDS011;4769;42.660;23.262;2024-02-15T02:15:38;10.57;;;7.80;;
9461;SDS011;4769;42.660;23.262;2024-02-15T02:18:04;9.90;;;8.80;;
9461;SDS011;4769;42.660;23.262;2024-02-15T02:20:35;10.17;;;7.70;;
9461;SDS011;4769;42.660;23.262;2024-02-15T02:23:13;11.30;;;8.47;;
9461;SDS011;4769;42.660;23.262;2024-02-15T02:25:39;9.77;;;8.27;;
9461;SDS011;4769;42.660;23.262;2024-02-15T02:28:07;10.63;;;8.30;;
9461;SDS011;4769;42.660;23.262;2024-02-15T02:30:33;11.87;;;8.00;;
9461;SDS011;4769;42.660;23.262;2024-02-15T02:32:59;11.33;;;8.63;;
9461;SDS011;4769;42.660;23.262;2024-02-15T02:35:25;12.10;;;9.00;;
9461;SDS011;4769;42.660;23.262;2024-02-15T02:37:52;11.17;;;8.67;;
9461;SDS011;4769;42.660;23.262;2024-02-15T02:40:20;11.10;;;8.83;;
9461;SDS011;4769;42.660;23.262;2024-02-15T02:42:52;11.00;;;8.70;;
9461;SDS011;4769;42.660;23.262;2024-02-15T02:45:23;9.57;;;8.47;;
9461;SDS011;4769;42.660;23.262;2024-02-15T02:47:49;10.83;;;8.07;;
9461;SDS011;4769;42.660;23.262;2024-02-15T02:50:15;9.47;;;8.27;;
9461;SDS011;4769;42.660;23.262;2024-02-15T02:52:40;10.33;;;7.90;;
9461;SDS011;4769;42.660;23.262;2024-02-15T02:55:06;9.47;;;7.90;;
9461;SDS011;4769;42.660;23.262;2024-02-15T02:57:35;11.43;;;8.60;;
9461;SDS011;4769;42.660;23.262;2024-02-15T03:00:04;10.53;;;8.20;;
9461;SDS011;4769;42.660;23.262;2024-02-15T03:02:33;11.90;;;8.73;;
9461;SDS011;4769;42.660;23.262;2024-02-15T03:05:01;9.27;;;8.37;;
9461;SDS011;4769;42.660;23.262;2024-02-15T03:07:34;10.77;;;8.83;;
9461;SDS011;4769;42.660;23.262;2024-02-15T03:10:03;10.53;;;8.90;;
9461;SDS011;4769;42.660;23.262;2024-02-15T03:12:29;9.87;;;8.63;;
9461;SDS011;4769;42.660;23.262;2024-02-15T03:14:55;11.83;;;8.83;;
9461;SDS011;4769;42.660;23.262;2024-02-15T03:17:22;11.57;;;8.77;;
9461;SDS011;4769;42.660;23.262;2024-02-15T03:19:51;10.67;;;8.13;;
9461;SDS011;4769;42.660;23.262;2024-02-15T03:22:16;10.63;;;8.90;;
9461;SDS011;4769;42.660;23.262;2024-02-15T03:24:42;9.70;;;7.83;;
9461;SDS011;4769;42.660;23.262;2024-02-15T03:27:08;10.30;;;8.83;;
9461;SDS011;4769;42.660;23.262;2024-02-15T03:29:35;12.77;;;9.30;;
9461;SDS011;4769;42.660;23.262;2024-02-15T03:32:01;10.10;;;8.00;;
9461;SDS011;4769;42.660;23.262;2024-02-15T03:34:29;10.10;;;9.07;;
9461;SDS011;4769;42.660;23.262;2024-02-15T03:36:56;13.37;;;9.53;;
9461;SDS011;4769;42.660;23.262;2024-02-15T03:39:21;11.03;;;9.40;;
9461;SDS011;4769;42.660;23.262;2024-02-15T03:41:48;10.53;;;9.40;;
9461;SDS011;4769;42.660;23.262;2024-02-15T03:44:14;14.20;;;9.97;;
9461;SDS011;4769;42.660;23.262;2024-02-15T03:46:39;13.27;;;8.93;;
9461;SDS011;4769;42.660;23.262;2024-02-15T03:49:05;11.87;;;8.97;;
9461;SDS011;4769;42.660;23.262;2024-02-15T03:51:33;14.53;;;9.40;;
9461;SDS011;4769;42.660;23.262;2024-02-15T03:53:59;14.30;;;10.37;;
9461;SDS011;4769;42.660;23.262;2024-02-15T03:56:24;12.00;;;9.37;;
9461;SDS011;4769;42.660;23.262;2024-02-15T03:58:50;13.47;;;9.87;;
9461;SDS011;4769;42.660;23.262;2024-02-15T04:01:16;10.07;;;9.07;;
9461;SDS011;4769;42.660;23.262;2024-02-15T04:03:41;14.97;;;9.47;;
9461;SDS011;4769;42.660;23.262;2024-02-15T04:06:07;10.47;;;9.00;;
9461;SDS011;4769;42.660;23.262;2024-02-15T04:08:32;11.13;;;8.53;;
9461;SDS011;4769;42.660;23.262;2024-02-15T04:10:58;10.87;;;9.30;;
9461;SDS011;4769;42.660;23.262;2024-02-15T04:13:24;12.60;;;9.87;;
9461;SDS011;4769;42.660;23.262;2024-02-15T04:15:50;11.73;;;9.53;;
9461;SDS011;4769;42.660;23.262;2024-02-15T04:18:17;10.80;;;9.57;;
9461;SDS011;4769;42.660;23.262;2024-02-15T04:20:43;12.87;;;10.33;;
9461;SDS011;4769;42.660;23.262;2024-02-15T04:23:11;13.43;;;9.73;;
9461;SDS011;4769;42.660;23.262;2024-02-15T04:25:36;12.33;;;10.10;;
9461;SDS011;4769;42.660;23.262;2024-02-15T04:28:02;14.90;;;9.90;;
9461;SDS011;4769;42.660;23.262;2024-02-15T04:30:29;12.37;;;9.80;;
9461;SDS011;4769;42.660;23.262;2024-02-15T04:32:55;13.60;;;10.27;;
9461;SDS011;4769;42.660;23.262;2024-02-15T04:35:20;13.23;;;9.60;;
9461;SDS011;4769;42.660;23.262;2024-02-15T04:37:46;12.77;;;9.80;;
9461;SDS011;4769;42.660;23.262;2024-02-15T04:40:14;13.63;;;9.60;;
9461;SDS011;4769;42.660;23.262;2024-02-15T04:42:39;15.70;;;9.87;;
9461;SDS011;4769;42.660;23.262;2024-02-15T04:45:06;14.97;;;9.63;;
9461;SDS011;4769;42.660;23.262;2024-02-15T04:47:38;12.63;;;9.87;;
9461;SDS011;4769;42.660;23.262;2024-02-15T04:50:05;14.37;;;10.00;;
9461;SDS011;4769;42.660;23.262;2024-02-15T04:52:31;12.27;;;9.83;;
9461;SDS011;4769;42.660;23.262;2024-02-15T04:54:57;13.57;;;9.53;;
9461;SDS011;4769;42.660;23.262;2024-02-15T04:57:25;14.23;;;9.57;;
9461;SDS011;4769;42.660;23.262;2024-02-15T04:59:53;15.23;;;10.43;;
9461;SDS011;4769;42.660;23.262;2024-02-15T05:02:19;13.63;;;10.20;;
9461;SDS011;4769;42.660;23.262;2024-02-15T05:04:45;11.80;;;9.63;;
9461;SDS011;4769;42.660;23.262;2024-02-15T05:07:10;12.43;;;9.60;;
9461;SDS011;4769;42.660;23.262;2024-02-15T05:09:36;15.67;;;9.97;;
9461;SDS011;4769;42.660;23.262;2024-02-15T05:12:02;14.03;;;10.20;;
9461;SDS011;4769;42.660;23.262;2024-02-15T05:14:28;13.37;;;9.77;;
9461;SDS011;4769;42.660;23.262;2024-02-15T05:16:53;14.13;;;9.73;;
9461;SDS011;4769;42.660;23.262;2024-02-15T05:19:19;13.30;;;10.20;;
9461;SDS011;4769;42.660;23.262;2024-02-15T05:21:44;13.03;;;9.67;;
9461;SDS011;4769;42.660;23.262;2024-02-15T05:24:14;10.83;;;9.10;;
9461;SDS011;4769;42.660;23.262;2024-02-15T05:26:44;13.13;;;9.53;;
9461;SDS011;4769;42.660;23.262;2024-02-15T05:29:14;15.33;;;9.20;;
9461;SDS011;4769;42.660;23.262;2024-02-15T05:31:39;13.90;;;9.43;;
9461;SDS011;4769;42.660;23.262;2024-02-15T05:34:05;13.27;;;9.87;;
9461;SDS011;4769;42.660;23.262;2024-02-15T05:36:36;13.03;;;9.37;;
9461;SDS011;4769;42.660;23.262;2024-02-15T05:39:03;17.57;;;10.07;;
9461;SDS011;4769;42.660;23.262;2024-02-15T05:41:29;12.67;;;10.20;;
9461;SDS011;4769;42.660;23.262;2024-02-15T05:43:55;14.93;;;9.97;;
9461;SDS011;4769;42.660;23.262;2024-02-15T05:46:22;12.00;;;9.37;;
9461;SDS011;4769;42.660;23.262;2024-02-15T05:48:48;13.27;;;9.57;;
9461;SDS011;4769;42.660;23.262;2024-02-15T05:51:14;13.17;;;9.77;;
9461;SDS011;4769;42.660;23.262;2024-02-15T05:53:40;12.37;;;9.10;;
9461;SDS011;4769;42.660;23.262;2024-02-15T05:56:06;12.67;;;8.90;;
9461;SDS011;4769;42.660;23.262;2024-02-15T05:58:32;17.43;;;10.40;;
9461;SDS011;4769;42.660;23.262;2024-02-15T06:01:02;10.87;;;8.97;;
9461;SDS011;4769;42.660;23.262;2024-02-15T06:03:30;12.97;;;9.50;;
9461;SDS011;4769;42.660;23.262;2024-02-15T06:06:00;14.10;;;10.13;;
9461;SDS011;4769;42.660;23.262;2024-02-15T06:08:30;15.60;;;9.90;;
9461;SDS011;4769;42.660;23.262;2024-02-15T06:10:55;11.50;;;8.57;;
9461;SDS011;4769;42.660;23.262;2024-02-15T06:13:21;13.33;;;9.50;;
9461;SDS011;4769;42.660;23.262;2024-02-15T06:15:48;14.00;;;9.50;;
9461;SDS011;4769;42.660;23.262;2024-02-15T06:18:18;13.60;;;9.27;;
9461;SDS011;4769;42.660;23.262;2024-02-15T06:20:46;14.17;;;9.60;;
9461;SDS011;4769;42.660;23.262;2024-02-15T06:23:16;13.23;;;9.67;;
9461;SDS011;4769;42.660;23.262;2024-02-15T06:25:42;13.97;;;9.63;;
9461;SDS011;4769;42.660;23.262;2024-02-15T06:28:08;15.40;;;9.70;;
9461;SDS011;4769;42.660;23.262;2024-02-15T06:30:52;16.07;;;10.00;;
9461;SDS011;4769;42.660;23.262;2024-02-15T06:33:38;13.60;;;9.17;;
9461;SDS011;4769;42.660;23.262;2024-02-15T06:36:22;16.03;;;9.10;;
9461;SDS011;4769;42.660;23.262;2024-02-15T06:39:06;12.27;;;9.57;;
9461;SDS011;4769;42.660;23.262;2024-02-15T06:41:49;11.33;;;9.37;;
9461;SDS011;4769;42.660;23.262;2024-02-15T06:44:15;13.07;;;9.73;;
9461;SDS011;4769;42.660;23.262;2024-02-15T06:46:40;17.63;;;9.53;;
9461;SDS011;4769;42.660;23.262;2024-02-15T06:49:06;20.07;;;13.23;;
9461;SDS011;4769;42.660;23.262;2024-02-15T06:51:31;15.30;;;10.03;;
9461;SDS011;4769;42.660;23.262;2024-02-15T06:53:57;10.80;;;8.07;;
9461;SDS011;4769;42.660;23.262;2024-02-15T06:56:22;11.40;;;8.57;;
9461;SDS011;4769;42.660;23.262;2024-02-15T06:58:49;13.30;;;9.43;;
9461;SDS011;4769;42.660;23.262;2024-02-15T07:01:15;11.80;;;9.60;;
9461;SDS011;4769;42.660;23.262;2024-02-15T07:03:41;12.47;;;9.30;;
9461;SDS011;4769;42.660;23.262;2024-02-15T07:06:09;12.40;;;9.53;;
9461;SDS011;4769;42.660;23.262;2024-02-15T07:08:35;11.40;;;8.63;;
9461;SDS011;4769;42.660;23.262;2024-02-15T07:11:00;12.07;;;9.03;;
9461;SDS011;4769;42.660;23.262;2024-02-15T07:13:28;10.20;;;8.17;;
9461;SDS011;4769;42.660;23.262;2024-02-15T07:15:54;11.20;;;9.20;;
9461;SDS011;4769;42.660;23.262;2024-02-15T07:18:19;10.33;;;8.00;;
9461;SDS011;4769;42.660;23.262;2024-02-15T07:20:47;11.90;;;9.23;;
9461;SDS011;4769;42.660;23.262;2024-02-15T07:23:13;12.70;;;9.20;;
9461;SDS011;4769;42.660;23.262;2024-02-15T07:25:38;13.63;;;8.87;;
9461;SDS011;4769;42.660;23.262;2024-02-15T07:28:04;13.87;;;8.37;;
9461;SDS011;4769;42.660;23.262;2024-02-15T07:30:30;11.87;;;8.60;;
9461;SDS011;4769;42.660;23.262;2024-02-15T07:32:56;11.33;;;8.27;;
9461;SDS011;4769;42.660;23.262;2024-02-15T07:35:22;10.90;;;8.40;;
9461;SDS011;4769;42.660;23.262;2024-02-15T07:37:53;10.63;;;8.33;;
9461;SDS011;4769;42.660;23.262;2024-02-15T07:40:21;13.60;;;8.57;;
9461;SDS011;4769;42.660;23.262;2024-02-15T07:42:47;14.47;;;9.30;;
9461;SDS011;4769;42.660;23.262;2024-02-15T07:45:13;12.37;;;8.00;;
9461;SDS011;4769;42.660;23.262;2024-02-15T07:47:39;11.23;;;8.73;;
9461;SDS011;4769;42.660;23.262;2024-02-15T07:50:04;11.50;;;8.70;;
9461;SDS011;4769;42.660;23.262;2024-02-15T07:52:30;12.93;;;9.03;;
9461;SDS011;4769;42.660;23.262;2024-02-15T07:54:56;14.33;;;9.43;;
9461;SDS011;4769;42.660;23.262;2024-02-15T07:57:21;12.07;;;8.73;;
9461;SDS011;4769;42.660;23.262;2024-02-15T07:59:47;10.30;;;8.60;;
9461;SDS011;4769;42.660;23.262;2024-02-15T08:02:14;11.30;;;8.93;;
9461;SDS011;4769;42.660;23.262;2024-02-15T08:04:43;11.10;;;8.90;;
9461;SDS011;4769;42.660;23.262;2024-02-15T08:07:09;10.10;;;8.23;;
9461;SDS011;4769;42.660;23.262;2024-02-15T08:09:37;10.97;;;8.40;;
9461;SDS011;4769;42.660;23.262;2024-02-15T08:12:03;12.90;;;8.50;;
9461;SDS011;4769;42.660;23.262;2024-02-15T08:14:31;10.20;;;7.93;;
9461;SDS011;4769;42.660;23.262;2024-02-15T08:16:56;10.50;;;8.20;;
9461;SDS011;4769;42.660;23.262;2024-02-15T08:19:22;11.43;;;8.50;;
9461;SDS011;4769;42.660;23.262;2024-02-15T08:21:48;10.67;;;8.67;;
9461;SDS011;4769;42.660;23.262;2024-02-15T08:24:15;12.93;;;8.27;;
9461;SDS011;4769;42.660;23.262;2024-02-15T08:26:42;11.47;;;8.10;;
9461;SDS011;4769;42.660;23.262;2024-02-15T08:29:07;14.90;;;8.43;;
9461;SDS011;4769;42.660;23.262;2024-02-15T08:31:34;10.17;;;8.17;;
9461;SDS011;4769;42.660;23.262;2024-02-15T08:34:01;10.20;;;7.63;;
9461;SDS011;4769;42.660;23.262;2024-02-15T08:36:27;20.13;;;8.40;;
9461;SDS011;4769;42.660;23.262;2024-02-15T08:38:52;11.47;;;8.07;;
9461;SDS011;4769;42.660;23.262;2024-02-15T08:41:19;13.37;;;9.43;;
9461;SDS011;4769;42.660;23.262;2024-02-15T08:43:46;12.27;;;8.53;;
9461;SDS011;4769;42.660;23.262;2024-02-15T08:46:13;10.67;;;8.53;;
9461;SDS011;4769;42.660;23.262;2024-02-15T08:48:41;12.07;;;8.80;;
9461;SDS011;4769;42.660;23.262;2024-02-15T08:51:08;9.73;;;8.07;;
9461;SDS011;4769;42.660;23.262;2024-02-15T08:53:34;12.77;;;9.20;;
9461;SDS011;4769;42.660;23.262;2024-02-15T08:56:02;13.20;;;8.53;;
9461;SDS011;4769;42.660;23.262;2024-02-15T08:58:28;10.47;;;8.87;;
9461;SDS011;4769;42.660;23.262;2024-02-15T09:00:55;11.60;;;9.03;;
9461;SDS011;4769;42.660;23.262;2024-02-15T09:03:21;12.13;;;9.07;;
9461;SDS011;4769;42.660;23.262;2024-02-15T09:05:47;11.70;;;9.27;;
9461;SDS011;4769;42.660;23.262;2024-02-15T09:08:13;12.60;;;8.57;;
9461;SDS011;4769;42.660;23.262;2024-02-15T09:10:40;12.50;;;8.50;;
9461;SDS011;4769;42.660;23.262;2024-02-15T09:13:07;12.43;;;8.87;;
9461;SDS011;4769;42.660;23.262;2024-02-15T09:15:33;9.37;;;8.00;;
9461;SDS011;4769;42.660;23.262;2024-02-15T09:17:58;15.03;;;9.23;;
9461;SDS011;4769;42.660;23.262;2024-02-15T09:20:24;11.57;;;9.23;;
9461;SDS011;4769;42.660;23.262;2024-02-15T09:22:53;11.17;;;9.03;;
9461;SDS011;4769;42.660;23.262;2024-02-15T09:25:22;11.13;;;8.43;;
9461;SDS011;4769;42.660;23.262;2024-02-15T09:27:51;12.03;;;8.70;;
9461;SDS011;4769;42.660;23.262;2024-02-15T09:30:19;10.80;;;8.27;;
9461;SDS011;4769;42.660;23.262;2024-02-15T09:32:44;11.63;;;8.40;;
9461;SDS011;4769;42.660;23.262;2024-02-15T09:35:11;9.30;;;7.97;;
9461;SDS011;4769;42.660;23.262;2024-02-15T09:37:38;11.87;;;8.90;;
9461;SDS011;4769;42.660;23.262;2024-02-15T09:40:09;11.93;;;8.23;;
9461;SDS011;4769;42.660;23.262;2024-02-15T09:42:36;15.40;;;9.60;;
9461;SDS011;4769;42.660;23.262;2024-02-15T09:45:04;12.03;;;8.33;;
9461;SDS011;4769;42.660;23.262;2024-02-15T09:47:32;14.10;;;8.30;;
9461;SDS011;4769;42.660;23.262;2024-02-15T09:50:00;11.77;;;9.40;;
9461;SDS011;4769;42.660;23.262;2024-02-15T09:52:26;11.30;;;8.33;;
9461;SDS011;4769;42.660;23.262;2024-02-15T09:54:56;12.37;;;8.97;;
9461;SDS011;4769;42.660;23.262;2024-02-15T09:57:22;13.93;;;9.00;;
9461;SDS011;4769;42.660;23.262;2024-02-15T09:59:48;10.53;;;8.40;;
9461;SDS011;4769;42.660;23.262;2024-02-15T10:02:13;12.17;;;8.60;;
9461;SDS011;4769;42.660;23.262;2024-02-15T10:04:40;11.47;;;8.63;;
9461;SDS011;4769;42.660;23.262;2024-02-15T10:07:05;10.40;;;8.83;;
9461;SDS011;4769;42.660;23.262;2024-02-15T10:09:33;8.83;;;7.63;;
9461;SDS011;4769;42.660;23.262;2024-02-15T10:12:01;9.47;;;7.50;;
9461;SDS011;4769;42.660;23.262;2024-02-15T10:14:28;9.03;;;7.50;;
9461;SDS011;4769;42.660;23.262;2024-02-15T10:16:55;10.23;;;7.93;;
9461;SDS011;4769;42.660;23.262;2024-02-15T10:19:21;11.43;;;9.07;;
9461;SDS011;4769;42.660;23.262;2024-02-15T10:21:54;12.37;;;8.43;;
9461;SDS011;4769;42.660;23.262;2024-02-15T10:24:23;11.40;;;8.53;;
9461;SDS011;4769;42.660;23.262;2024-02-15T10:26:59;10.90;;;7.77;;
9461;SDS011;4769;42.660;23.262;2024-02-15T10:29:29;10.07;;;8.17;;
9461;SDS011;4769;42.660;23.262;2024-02-15T10:31:57;12.23;;;9.03;;
9461;SDS011;4769;42.660;23.262;2024-02-15T10:34:26;12.23;;;9.47;;
9461;SDS011;4769;42.660;23.262;2024-02-15T10:37:10;12.87;;;9.57;;
9461;SDS011;4769;42.660;23.262;2024-02-15T10:39:37;13.40;;;10.20;;
9461;SDS011;4769;42.660;23.262;2024-02-15T10:42:02;9.20;;;8.10;;
9461;SDS011;4769;42.660;23.262;2024-02-15T10:44:31;7.87;;;7.00;;
9461;SDS011;4769;42.660;23.262;2024-02-15T10:46:59;9.13;;;7.40;;
9461;SDS011;4769;42.660;23.262;2024-02-15T10:49:26;8.90;;;7.90;;
9461;SDS011;4769;42.660;23.262;2024-02-15T10:51:59;9.20;;;7.43;;
9461;SDS011;4769;42.660;23.262;2024-02-15T10:54:51;10.73;;;8.70;;
9461;SDS011;4769;42.660;23.262;2024-02-15T10:57:21;9.67;;;7.93;;
9461;SDS011;4769;42.660;23.262;2024-02-15T10:59:56;9.73;;;7.80;;
9461;SDS011;4769;42.660;23.262;2024-02-15T11:02:27;7.68;;;6.88;;
9461;SDS011;4769;42.660;23.262;2024-02-15T11:05:03;8.47;;;6.97;;
9461;SDS011;4769;42.660;23.262;2024-02-15T11:07:34;8.83;;;7.10;;
9461;SDS011;4769;42.660;23.262;2024-02-15T11:10:00;16.00;;;9.60;;
9461;SDS011;4769;42.660;23.262;2024-02-15T11:12:29;7.97;;;7.13;;
9461;SDS011;4769;42.660;23.262;2024-02-15T11:14:56;9.68;;;7.47;;
9461;SDS011;4769;42.660;23.262;2024-02-15T11:20:03;9.30;;;7.45;;
9461;SDS011;4769;42.660;23.262;2024-02-15T11:22:34;9.02;;;7.00;;
9461;SDS011;4769;42.660;23.262;2024-02-15T11:25:02;7.50;;;6.72;;
9461;SDS011;4769;42.660;23.262;2024-02-15T11:27:36;7.38;;;6.63;;
9461;SDS011;4769;42.660;23.262;2024-02-15T11:30:06;9.05;;;6.85;;
9461;SDS011;4769;42.660;23.262;2024-02-15T11:35:04;8.95;;;7.22;;
9461;SDS011;4769;42.660;23.262;2024-02-15T11:40:21;10.05;;;7.13;;
9461;SDS011;4769;42.660;23.262;2024-02-15T11:42:48;7.95;;;6.85;;
9461;SDS011;4769;42.660;23.262;2024-02-15T11:45:15;7.22;;;6.50;;
9461;SDS011;4769;42.660;23.262;2024-02-15T11:47:47;8.32;;;6.70;;
9461;SDS011;4769;42.660;23.262;2024-02-15T11:50:15;10.00;;;6.75;;
9461;SDS011;4769;42.660;23.262;2024-02-15T11:52:42;7.22;;;6.22;;
9461;SDS011;4769;42.660;23.262;2024-02-15T11:55:21;8.10;;;6.10;;
9461;SDS011;4769;42.660;23.262;2024-02-15T11:57:56;9.13;;;6.25;;
9461;SDS011;4769;42.660;23.262;2024-02-15T12:00:34;7.38;;;6.32;;
9461;SDS011;4769;42.660;23.262;2024-02-15T12:03:35;8.63;;;6.50;;
9461;SDS011;4769;42.660;23.262;2024-02-15T12:06:19;6.55;;;5.88;;
9461;SDS011;4769;42.660;23.262;2024-02-15T12:09:03;7.78;;;6.35;;
9461;SDS011;4769;42.660;23.262;2024-02-15T12:11:47;7.25;;;6.55;;
9461;SDS011;4769;42.660;23.262;2024-02-15T12:14:41;6.00;;;5.40;;
9461;SDS011;4769;42.660;23.262;2024-02-15T12:17:25;7.25;;;5.65;;
9461;SDS011;4769;42.660;23.262;2024-02-15T12:20:09;6.00;;;5.32;;
9461;SDS011;4769;42.660;23.262;2024-02-15T12:22:43;6.47;;;5.20;;
9461;SDS011;4769;42.660;23.262;2024-02-15T12:25:18;6.45;;;5.55;;
9461;SDS011;4769;42.660;23.262;2024-02-15T12:27:46;6.65;;;5.88;;
9461;SDS011;4769;42.660;23.262;2024-02-15T12:30:18;7.50;;;6.10;;
9461;SDS011;4769;42.660;23.262;2024-02-15T12:32:46;7.22;;;6.07;;
9461;SDS011;4769;42.660;23.262;2024-02-15T12:35:15;6.53;;;5.47;;
9461;SDS011;4769;42.660;23.262;2024-02-15T12:37:45;9.20;;;6.57;;
9461;SDS011;4769;42.660;23.262;2024-02-15T12:42:41;7.65;;;6.85;;
9461;SDS011;4769;42.660;23.262;2024-02-15T12:45:16;7.15;;;6.22;;
9461;SDS011;4769;42.660;23.262;2024-02-15T12:47:52;8.75;;;6.55;;
9461;SDS011;4769;42.660;23.262;2024-02-15T12:50:20;10.77;;;6.32;;
9461;SDS011;4769;42.660;23.262;2024-02-15T12:52:47;9.60;;;6.72;;
9461;SDS011;4769;42.660;23.262;2024-02-15T12:57:42;7.53;;;6.10;;
9461;SDS011;4769;42.660;23.262;2024-02-15T13:00:13;11.35;;;6.35;;
9461;SDS011;4769;42.660;23.262;2024-02-15T13:02:43;8.50;;;5.65;;
9461;SDS011;4769;42.660;23.262;2024-02-15T13:05:10;6.78;;;6.13;;
9461;SDS011;4769;42.660;23.262;2024-02-15T13:07:37;8.05;;;6.38;;
9461;SDS011;4769;42.660;23.262;2024-02-15T13:10:03;7.20;;;5.43;;
9461;SDS011;4769;42.660;23.262;2024-02-15T13:12:32;6.97;;;6.30;;
9461;SDS011;4769;42.660;23.262;2024-02-15T13:15:00;7.70;;;5.75;;
9461;SDS011;4769;42.660;23.262;2024-02-15T13:17:29;6.75;;;6.05;;
9461;SDS011;4769;42.660;23.262;2024-02-15T13:19:56;8.50;;;5.82;;
9461;SDS011;4769;42.660;23.262;2024-02-15T13:22:28;9.13;;;6.15;;
9461;SDS011;4769;42.660;23.262;2024-02-15T13:24:54;9.48;;;5.85;;
9461;SDS011;4769;42.660;23.262;2024-02-15T13:27:20;6.45;;;5.78;;
9461;SDS011;4769;42.660;23.262;2024-02-15T13:29:48;9.63;;;7.00;;
9461;SDS011;4769;42.660;23.262;2024-02-15T13:32:14;6.70;;;6.00;;
9461;SDS011;4769;42.660;23.262;2024-02-15T13:34:42;6.68;;;5.97;;
9461;SDS011;4769;42.660;23.262;2024-02-15T13:37:10;7.25;;;6.55;;
9461;SDS011;4769;42.660;23.262;2024-02-15T13:39:38;9.70;;;7.13;;
9461;SDS011;4769;42.660;23.262;2024-02-15T13:42:08;10.55;;;9.55;;
9461;SDS011;4769;42.660;23.262;2024-02-15T13:44:33;6.53;;;5.93;;
9461;SDS011;4769;42.660;23.262;2024-02-15T13:46:59;6.38;;;5.68;;
9461;SDS011;4769;42.660;23.262;2024-02-15T13:49:25;7.15;;;6.28;;
9461;SDS011;4769;42.660;23.262;2024-02-15T13:51:51;7.75;;;5.90;;
9461;SDS011;4769;42.660;23.262;2024-02-15T13:54:17;10.15;;;6.28;;
9461;SDS011;4769;42.660;23.262;2024-02-15T13:56:43;8.80;;;6.30;;
9461;SDS011;4769;42.660;23.262;2024-02-15T13:59:08;8.18;;;6.40;;
9461;SDS011;4769;42.660;23.262;2024-02-15T14:01:34;7.72;;;5.93;;
9461;SDS011;4769;42.660;23.262;2024-02-15T14:03:59;5.88;;;5.28;;
9461;SDS011;4769;42.660;23.262;2024-02-15T14:06:25;6.25;;;5.65;;
9461;SDS011;4769;42.660;23.262;2024-02-15T14:08:51;6.28;;;5.25;;
9461;SDS011;4769;42.660;23.262;2024-02-15T14:11:16;7.63;;;5.38;;
9461;SDS011;4769;42.660;23.262;2024-02-15T14:13:42;9.07;;;6.10;;
9461;SDS011;4769;42.660;23.262;2024-02-15T14:16:08;7.45;;;5.75;;
9461;SDS011;4769;42.660;23.262;2024-02-15T14:18:33;6.57;;;5.80;;
9461;SDS011;4769;42.660;23.262;2024-02-15T14:21:00;8.65;;;6.80;;
9461;SDS011;4769;42.660;23.262;2024-02-15T14:23:25;6.70;;;5.90;;
9461;SDS011;4769;42.660;23.262;2024-02-15T14:25:52;7.10;;;6.10;;
9461;SDS011;4769;42.660;23.262;2024-02-15T14:28:18;9.95;;;5.90;;
9461;SDS011;4769;42.660;23.262;2024-02-15T14:30:44;7.97;;;6.90;;
9461;SDS011;4769;42.660;23.262;2024-02-15T14:33:27;10.23;;;6.22;;
9461;SDS011;4769;42.660;23.262;2024-02-15T14:35:53;6.68;;;5.97;;
9461;SDS011;4769;42.660;23.262;2024-02-15T14:38:20;9.07;;;6.15;;
9461;SDS011;4769;42.660;23.262;2024-02-15T14:40:46;8.00;;;6.28;;
9461;SDS011;4769;42.660;23.262;2024-02-15T14:43:18;6.78;;;6.07;;
9461;SDS011;4769;42.660;23.262;2024-02-15T14:45:45;7.80;;;6.32;;
9461;SDS011;4769;42.660;23.262;2024-02-15T14:48:12;6.82;;;6.07;;
9461;SDS011;4769;42.660;23.262;2024-02-15T14:50:41;6.22;;;5.53;;
9461;SDS011;4769;42.660;23.262;2024-02-15T14:53:07;9.80;;;5.32;;
9461;SDS011;4769;42.660;23.262;2024-02-15T14:55:33;7.88;;;5.80;;
9461;SDS011;4769;42.660;23.262;2024-02-15T14:58:08;9.32;;;6.40;;
9461;SDS011;4769;42.660;23.262;2024-02-15T15:00:34;8.35;;;6.30;;
9461;SDS011;4769;42.660;23.262;2024-02-15T15:03:00;8.50;;;6.38;;
9461;SDS011;4769;42.660;23.262;2024-02-15T15:05:25;11.00;;;6.55;;
9461;SDS011;4769;42.660;23.262;2024-02-15T15:08:09;10.32;;;6.05;;
9461;SDS011;4769;42.660;23.262;2024-02-15T15:10:54;7.25;;;6.53;;